createdAt,value
2022-11-06T00:00:55.526Z,99.99
2022-11-06T00:01:55.589Z,99.65
2022-11-06T00:02:55.530Z,99.86
2022-11-06T00:03:55.594Z,99.65
2022-11-06T00:04:55.461Z,99.99
2022-11-06T00:05:55.464Z,99.99
2022-11-06T00:06:55.450Z,99.86
2022-11-06T00:07:55.440Z,99.99
2022-11-06T00:08:55.513Z,99.99
2022-11-06T00:09:55.424Z,99.99
2022-11-06T00:10:55.409Z,99.99
2022-11-06T00:11:55.437Z,99.91
2022-11-06T00:12:55.433Z,99.99
2022-11-06T00:13:55.356Z,99.86
2022-11-06T00:14:55.359Z,99.34
2022-11-06T00:15:55.365Z,99.96
2022-11-06T00:16:55.377Z,99.65
2022-11-06T00:17:55.317Z,99.86
2022-11-06T00:18:55.329Z,99.91
2022-11-06T00:19:55.295Z,99.99
2022-11-06T00:20:55.342Z,99.91
2022-11-06T00:21:55.314Z,99.99
2022-11-06T00:22:55.256Z,99.99
2022-11-06T00:23:55.271Z,99.74
2022-11-06T00:24:55.281Z,99.99
2022-11-06T00:25:55.310Z,99.99
2022-11-06T00:26:55.269Z,99.99
2022-11-06T00:27:55.345Z,99.99
2022-11-06T00:28:55.225Z,99.99
2022-11-06T00:29:55.200Z,99.99
2022-11-06T00:30:55.247Z,99.99
2022-11-06T00:31:55.194Z,99.99
2022-11-06T00:32:55.177Z,99.99
2022-11-06T00:33:55.158Z,99.99
2022-11-06T00:34:55.150Z,99.99
2022-11-06T00:35:55.155Z,99.99
2022-11-06T00:36:55.164Z,99.99
2022-11-06T00:37:55.128Z,99.99
2022-11-06T00:38:55.170Z,99.99
2022-11-06T00:39:55.096Z,99.99
2022-11-06T00:40:55.130Z,99.99
2022-11-06T00:41:55.081Z,99.99
2022-11-06T00:42:55.049Z,99.99
2022-11-06T00:43:55.062Z,99.99
2022-11-06T00:44:55.031Z,99.99
2022-11-06T00:45:55.043Z,99.99
2022-11-06T00:46:55.081Z,99.99
2022-11-06T00:47:55.058Z,99.99
2022-11-06T00:48:54.998Z,99.99
2022-11-06T00:49:54.988Z,99.99
2022-11-06T00:50:54.969Z,99.99
2022-11-06T00:51:54.965Z,99.99
2022-11-06T00:52:54.970Z,99.99
2022-11-06T00:53:54.937Z,99.99
2022-11-06T00:54:54.920Z,99.99
2022-11-06T00:55:54.936Z,99.99
2022-11-06T00:56:54.934Z,99.99
2022-11-06T00:57:54.921Z,99.99
2022-11-06T00:58:54.910Z,99.99
2022-11-06T00:59:54.999Z,99.99
2022-11-06T01:00:54.883Z,99.99
2022-11-06T01:01:55.022Z,99.99
2022-11-06T01:02:54.999Z,99.99
2022-11-06T01:03:54.833Z,99.99
2022-11-06T01:04:54.830Z,99.74
2022-11-06T01:05:54.872Z,99.74
2022-11-06T01:06:54.848Z,99.99
2022-11-06T01:07:54.823Z,99.99
2022-11-06T01:08:54.774Z,99.99
2022-11-06T01:09:54.759Z,99.99
2022-11-06T01:10:54.766Z,99.99
2022-11-06T01:12:55.767Z,99.99
2022-11-06T01:13:54.730Z,99.99
2022-11-06T01:14:54.717Z,99.99
2022-11-06T01:15:54.743Z,99.85
2022-11-06T01:16:54.754Z,99.99
2022-11-06T01:17:54.720Z,99.99
2022-11-06T01:18:54.677Z,99.99
2022-11-06T01:19:54.676Z,99.99
2022-11-06T01:20:54.651Z,99.99
2022-11-06T01:21:54.654Z,99.95
2022-11-06T01:22:54.652Z,99.99
2022-11-06T01:23:54.617Z,99.99
2022-11-06T01:24:54.689Z,99.74
2022-11-06T01:25:54.591Z,99.85
2022-11-06T01:27:20.329Z,99.99
2022-11-06T01:27:55.653Z,99.99
2022-11-06T01:28:54.608Z,99.99
2022-11-06T01:29:54.558Z,99.99
2022-11-06T01:30:54.545Z,99.99
2022-11-06T01:31:54.607Z,99.99
2022-11-06T01:32:54.530Z,99.99
2022-11-06T01:33:54.530Z,99.99
2022-11-06T01:34:54.523Z,99.99
2022-11-06T01:35:54.514Z,99.54
2022-11-06T01:36:54.504Z,99.64
2022-11-06T01:37:54.521Z,99.95
2022-11-06T01:38:54.489Z,99.85
2022-11-06T01:39:54.448Z,99.99
2022-11-06T01:40:54.459Z,99.99
2022-11-06T01:41:54.476Z,99.99
2022-11-06T01:42:54.475Z,99.99
2022-11-06T01:43:54.463Z,99.99
2022-11-06T01:44:54.400Z,99.58
2022-11-06T01:45:54.407Z,99.84
2022-11-06T01:46:54.372Z,99.99
2022-11-06T01:47:54.396Z,99.99
2022-11-06T01:48:54.370Z,99.99
2022-11-06T01:49:54.393Z,99.99
2022-11-06T01:50:54.361Z,99.99
2022-11-06T01:51:54.325Z,99.99
2022-11-06T01:52:54.332Z,99.99
2022-11-06T01:53:54.394Z,99.99
2022-11-06T01:54:54.291Z,99.99
2022-11-06T01:55:54.302Z,99.99
2022-11-06T01:56:54.273Z,99.99
2022-11-06T01:57:54.312Z,99.99
2022-11-06T01:58:54.247Z,99.99
2022-11-06T01:59:54.278Z,99.99
2022-11-06T02:00:54.357Z,99.99
2022-11-06T02:01:54.343Z,99.99
2022-11-06T02:02:54.427Z,99.99
2022-11-06T02:03:54.206Z,99.99
2022-11-06T02:04:54.227Z,99.99
2022-11-06T02:05:54.165Z,99.99
2022-11-06T02:06:54.163Z,99.99
2022-11-06T02:07:54.239Z,99.99
2022-11-06T02:08:54.132Z,99.99
2022-11-06T02:09:54.160Z,99.99
2022-11-06T02:10:54.113Z,99.99
2022-11-06T02:11:54.110Z,99.99
2022-11-06T02:12:54.120Z,99.94
2022-11-06T02:13:54.143Z,99.99
2022-11-06T02:14:54.083Z,99.99
2022-11-06T02:15:54.092Z,99.99
2022-11-06T02:16:54.089Z,99.99
2022-11-06T02:17:54.065Z,99.99
2022-11-06T02:18:54.034Z,99.99
2022-11-06T02:19:54.040Z,99.99
2022-11-06T02:20:54.013Z,99.99
2022-11-06T02:21:54.034Z,99.99
2022-11-06T02:22:53.991Z,99.99
2022-11-06T02:23:53.992Z,99.99
2022-11-06T02:24:53.975Z,99.99
2022-11-06T02:25:54.046Z,99.99
2022-11-06T02:26:54.230Z,99.99
2022-11-06T02:27:54.007Z,99.99
2022-11-06T02:28:53.932Z,99.99
2022-11-06T02:29:53.928Z,99.99
2022-11-06T02:30:53.950Z,99.99
2022-11-06T02:31:53.912Z,99.99
2022-11-06T02:32:53.952Z,99.99
2022-11-06T02:33:53.887Z,99.99
2022-11-06T02:34:53.891Z,99.99
2022-11-06T02:35:53.869Z,99.99
2022-11-06T02:36:53.895Z,99.99
2022-11-06T02:37:53.947Z,99.99
2022-11-06T02:38:53.826Z,99.99
2022-11-06T02:39:53.836Z,99.99
2022-11-06T02:40:53.816Z,99.99
2022-11-06T02:41:53.819Z,99.99
2022-11-06T02:42:53.798Z,99.99
2022-11-06T02:43:53.797Z,99.99
2022-11-06T02:44:53.755Z,99.99
2022-11-06T02:45:53.778Z,99.99
2022-11-06T02:46:53.761Z,99.99
2022-11-06T02:47:53.846Z,99.99
2022-11-06T02:48:53.733Z,99.99
2022-11-06T02:49:53.734Z,99.99
2022-11-06T02:50:53.699Z,99.99
2022-11-06T02:51:53.828Z,99.99
2022-11-06T02:52:53.704Z,99.99
2022-11-06T02:53:53.715Z,99.99
2022-11-06T02:54:53.685Z,99.99
2022-11-06T02:55:53.647Z,99.99
2022-11-06T02:56:53.639Z,99.99
2022-11-06T02:57:53.712Z,99.99
2022-11-06T02:58:53.675Z,99.99
2022-11-06T02:59:53.611Z,99.99
2022-11-06T03:00:53.629Z,99.99
2022-11-06T03:01:53.731Z,99.73
2022-11-06T03:02:53.787Z,99.84
2022-11-06T03:03:53.606Z,99.73
2022-11-06T03:04:53.594Z,99.73
2022-11-06T03:05:53.636Z,99.52
2022-11-06T03:06:53.543Z,99.22
2022-11-06T03:07:53.581Z,99.99
2022-11-06T03:08:53.549Z,99.99
2022-11-06T03:09:53.538Z,99.99
2022-11-06T03:10:53.540Z,99.99
2022-11-06T03:11:53.527Z,99.99
2022-11-06T03:12:53.514Z,99.99
2022-11-06T03:13:53.466Z,99.99
2022-11-06T03:14:53.447Z,99.99
2022-11-06T03:15:53.741Z,99.99
2022-11-06T03:16:53.496Z,99.99
2022-11-06T03:17:53.444Z,99.99
2022-11-06T03:18:53.400Z,99.99
2022-11-06T03:19:53.387Z,99.99
2022-11-06T03:20:53.430Z,99.99
2022-11-06T03:21:53.524Z,99.99
2022-11-06T03:22:53.374Z,99.99
2022-11-06T03:23:53.454Z,99.99
2022-11-06T03:24:53.377Z,99.99
2022-11-06T03:25:53.328Z,99.99
2022-11-06T03:26:53.380Z,99.78
2022-11-06T03:27:53.361Z,99.16
2022-11-06T03:28:53.292Z,99.47
2022-11-06T03:29:53.330Z,99.57
2022-11-06T03:30:53.274Z,99.68
2022-11-06T03:31:53.314Z,99.68
2022-11-06T03:32:53.278Z,99.57
2022-11-06T03:33:53.256Z,99.57
2022-11-06T03:34:53.225Z,99.99
2022-11-06T03:35:53.254Z,99.88
2022-11-06T03:36:53.232Z,99.57
2022-11-06T03:37:53.199Z,99.57
2022-11-06T03:38:53.201Z,99.26
2022-11-06T03:39:53.271Z,99.57
2022-11-06T03:40:53.186Z,99.68
2022-11-06T03:41:53.222Z,99.99
2022-11-06T03:42:53.146Z,99.99
2022-11-06T03:43:53.127Z,99.99
2022-11-06T03:44:53.169Z,99.99
2022-11-06T03:45:53.161Z,99.99
2022-11-06T03:46:53.275Z,99.99
2022-11-06T03:47:53.102Z,99.99
2022-11-06T03:48:53.315Z,99.99
2022-11-06T03:49:53.081Z,99.99
2022-11-06T03:50:53.083Z,99.99
2022-11-06T03:51:53.055Z,99.99
2022-11-06T03:52:53.328Z,99.99
2022-11-06T03:53:53.060Z,99.93
2022-11-06T03:54:53.024Z,99.99
2022-11-06T03:55:53.102Z,99.62
2022-11-06T03:56:52.998Z,99.99
2022-11-06T03:57:52.980Z,99.99
2022-11-06T03:58:53.037Z,99.99
2022-11-06T03:59:52.959Z,99.99
2022-11-06T04:00:53.041Z,99.99
2022-11-06T04:01:53.068Z,99.99
2022-11-06T04:02:53.073Z,99.78
2022-11-06T04:03:52.983Z,99.78
2022-11-06T04:04:52.952Z,99.72
2022-11-06T04:05:52.937Z,99.78
2022-11-06T04:06:52.899Z,99.31
2022-11-06T04:07:52.902Z,99.16
2022-11-06T04:08:52.876Z,99.26
2022-11-06T04:09:52.882Z,99.05
2022-11-06T04:10:52.844Z,98.90
2022-11-06T04:11:52.855Z,99.52
2022-11-06T04:12:52.903Z,98.95
2022-11-06T04:13:52.857Z,99.05
2022-11-06T04:14:52.801Z,99.31
2022-11-06T04:15:52.804Z,99.21
2022-11-06T04:16:52.838Z,99.41
2022-11-06T04:17:52.879Z,99.82
2022-11-06T04:18:52.797Z,99.62
2022-11-06T04:19:52.800Z,99.00
2022-11-06T04:20:52.769Z,99.31
2022-11-06T04:21:52.734Z,99.47
2022-11-06T04:22:52.717Z,99.41
2022-11-06T04:23:52.749Z,99.10
2022-11-06T04:24:52.753Z,99.21
2022-11-06T04:25:52.723Z,99.31
2022-11-06T04:26:52.770Z,99.00
2022-11-06T04:27:52.685Z,98.90
2022-11-06T04:28:52.674Z,99.31
2022-11-06T04:29:52.680Z,98.90
2022-11-06T04:30:52.639Z,99.31
2022-11-06T04:31:52.674Z,99.31
2022-11-06T04:32:58.679Z,99.62
2022-11-06T04:33:53.759Z,99.62
2022-11-06T04:34:52.605Z,99.72
2022-11-06T04:35:52.672Z,99.77
2022-11-06T04:36:52.583Z,99.46
2022-11-06T04:37:52.576Z,99.99
2022-11-06T04:38:52.593Z,99.99
2022-11-06T04:39:52.658Z,99.99
2022-11-06T04:40:52.584Z,99.99
2022-11-06T04:41:52.569Z,99.99
2022-11-06T04:42:52.517Z,99.99
2022-11-06T04:43:52.513Z,99.99
2022-11-06T04:44:52.495Z,99.99
2022-11-06T04:45:52.510Z,99.99
2022-11-06T04:46:52.522Z,99.99
2022-11-06T04:47:52.478Z,99.99
2022-11-06T04:48:52.473Z,99.99
2022-11-06T04:49:52.467Z,99.99
2022-11-06T04:50:52.437Z,99.99
2022-11-06T04:51:52.432Z,99.99
2022-11-06T04:52:52.417Z,99.99
2022-11-06T04:53:52.470Z,99.99
2022-11-06T04:54:52.445Z,99.99
2022-11-06T04:55:52.417Z,99.99
2022-11-06T04:56:52.438Z,99.99
2022-11-06T04:57:52.426Z,99.99
2022-11-06T04:58:52.353Z,99.99
2022-11-06T04:59:52.423Z,99.99
2022-11-06T05:00:52.394Z,99.99
2022-11-06T05:01:52.370Z,99.99
2022-11-06T05:02:52.347Z,99.99
2022-11-06T05:03:52.323Z,99.99
2022-11-06T05:04:52.318Z,99.99
2022-11-06T05:05:52.278Z,99.98
2022-11-06T05:06:52.301Z,99.77
2022-11-06T05:07:52.280Z,99.46
2022-11-06T05:08:52.230Z,99.66
2022-11-06T05:09:52.257Z,99.35
2022-11-06T05:10:52.215Z,99.56
2022-11-06T05:11:52.296Z,99.35
2022-11-06T05:12:52.240Z,99.66
2022-11-06T05:13:52.208Z,99.66
2022-11-06T05:14:52.198Z,99.99
2022-11-06T05:15:52.193Z,99.87
2022-11-06T05:16:52.206Z,99.77
2022-11-06T05:17:52.140Z,99.99
2022-11-06T05:18:52.146Z,99.46
2022-11-06T05:19:52.200Z,98.99
2022-11-06T05:20:52.109Z,99.76
2022-11-06T05:21:52.120Z,99.80
2022-11-06T05:22:52.105Z,99.99
2022-11-06T05:23:52.079Z,99.99
2022-11-06T05:24:52.155Z,99.99
2022-11-06T05:25:52.091Z,99.99
2022-11-06T05:26:57.828Z,99.99
2022-11-06T05:27:53.037Z,99.99
2022-11-06T05:28:52.046Z,99.99
2022-11-06T05:29:52.102Z,99.99
2022-11-06T05:30:52.118Z,99.99
2022-11-06T05:31:52.010Z,99.99
2022-11-06T05:32:52.039Z,99.99
2022-11-06T05:33:52.010Z,99.99
2022-11-06T05:34:52.055Z,99.99
2022-11-06T05:35:51.996Z,99.99
2022-11-06T05:36:51.985Z,99.99
2022-11-06T05:37:52.052Z,99.99
2022-11-06T05:38:51.926Z,99.99
2022-11-06T05:39:51.923Z,99.99
2022-11-06T05:40:51.899Z,99.99
2022-11-06T05:41:51.949Z,99.99
2022-11-06T05:42:51.938Z,99.99
2022-11-06T05:43:51.901Z,99.99
2022-11-06T05:44:51.921Z,99.99
2022-11-06T05:45:51.875Z,99.99
2022-11-06T05:46:51.835Z,99.99
2022-11-06T05:47:51.955Z,99.99
2022-11-06T05:48:51.811Z,99.99
2022-11-06T05:49:51.980Z,99.99
2022-11-06T05:50:51.814Z,99.99
2022-11-06T05:51:51.800Z,99.99
2022-11-06T05:52:51.972Z,99.99
2022-11-06T05:53:51.796Z,99.99
2022-11-06T05:54:51.830Z,99.99
2022-11-06T05:55:52.013Z,99.99
2022-11-06T05:56:51.823Z,99.99
2022-11-06T05:57:51.799Z,99.99
2022-11-06T05:58:51.723Z,99.99
2022-11-06T05:59:51.708Z,99.99
2022-11-06T06:00:51.705Z,99.99
2022-11-06T06:01:51.808Z,99.99
2022-11-06T06:02:51.739Z,99.99
2022-11-06T06:03:51.772Z,99.99
2022-11-06T06:04:51.748Z,99.99
2022-11-06T06:05:51.675Z,99.99
2022-11-06T06:06:51.712Z,99.99
2022-11-06T06:07:51.694Z,99.99
2022-11-06T06:08:51.677Z,99.99
2022-11-06T06:09:51.735Z,99.99
2022-11-06T06:10:51.578Z,99.99
2022-11-06T06:11:51.588Z,99.99
2022-11-06T06:12:51.715Z,99.99
2022-11-06T06:13:51.638Z,99.99
2022-11-06T06:14:51.750Z,99.99
2022-11-06T06:15:51.562Z,99.99
2022-11-06T06:16:51.622Z,99.99
2022-11-06T06:17:51.536Z,99.99
2022-11-06T06:18:51.518Z,99.99
2022-11-06T06:19:51.503Z,99.99
2022-11-06T06:20:51.484Z,99.99
2022-11-06T06:21:51.487Z,99.99
2022-11-06T06:22:51.485Z,99.99
2022-11-06T06:23:51.453Z,99.99
2022-11-06T06:24:51.521Z,99.99
2022-11-06T06:25:51.571Z,99.99
2022-11-06T06:26:51.431Z,99.99
2022-11-06T06:27:51.419Z,99.99
2022-11-06T06:28:51.469Z,99.99
2022-11-06T06:29:51.438Z,99.99
2022-11-06T06:30:51.933Z,99.99
2022-11-06T06:31:51.388Z,99.99
2022-11-06T06:32:51.365Z,99.99
2022-11-06T06:33:51.509Z,99.99
2022-11-06T06:34:51.326Z,99.99
2022-11-06T06:35:51.349Z,99.99
2022-11-06T06:36:51.340Z,99.99
2022-11-06T06:37:51.371Z,99.99
2022-11-06T06:38:51.315Z,99.99
2022-11-06T06:39:51.308Z,99.99
2022-11-06T06:40:51.273Z,99.99
2022-11-06T06:41:51.283Z,99.99
2022-11-06T06:42:51.307Z,99.99
2022-11-06T06:43:51.364Z,99.99
2022-11-06T06:44:51.250Z,99.99
2022-11-06T06:45:51.244Z,99.99
2022-11-06T06:46:51.244Z,99.99
2022-11-06T06:47:51.237Z,99.99
2022-11-06T06:48:51.345Z,99.99
2022-11-06T06:49:51.187Z,99.99
2022-11-06T06:50:51.243Z,99.99
2022-11-06T06:51:51.174Z,99.99
2022-11-06T06:52:51.142Z,99.99
2022-11-06T06:53:51.241Z,99.99
2022-11-06T06:54:51.139Z,99.99
2022-11-06T06:55:51.109Z,99.99
2022-11-06T06:56:51.115Z,99.99
2022-11-06T06:57:51.106Z,99.99
2022-11-06T06:58:51.164Z,99.99
2022-11-06T06:59:51.074Z,99.99
2022-11-06T07:00:51.268Z,99.99
2022-11-06T07:01:51.221Z,99.99
2022-11-06T07:02:51.032Z,99.99
2022-11-06T07:03:51.037Z,99.99
2022-11-06T07:04:51.079Z,99.72
2022-11-06T07:05:51.033Z,99.62
2022-11-06T07:06:51.036Z,99.10
2022-11-06T07:07:51.020Z,98.85
2022-11-06T07:08:50.980Z,99.05
2022-11-06T07:09:50.968Z,99.16
2022-11-06T07:10:50.945Z,99.37
2022-11-06T07:11:50.988Z,98.43
2022-11-06T07:12:51.051Z,98.28
2022-11-06T07:13:50.970Z,98.40
2022-11-06T07:14:50.949Z,97.26
2022-11-06T07:15:50.939Z,97.44
2022-11-06T07:16:53.702Z,94.35
2022-11-06T07:17:50.973Z,91.71
2022-11-06T07:18:50.883Z,91.52
2022-11-06T07:19:50.882Z,87.96
2022-11-06T07:20:50.853Z,86.19
2022-11-06T07:21:50.848Z,82.67
2022-11-06T07:22:50.823Z,80.41
2022-11-06T07:23:50.853Z,81.30
2022-11-06T07:24:50.823Z,81.38
2022-11-06T07:25:50.827Z,82.76
2022-11-06T07:26:50.807Z,83.06
2022-11-06T07:27:50.798Z,84.77
2022-11-06T07:28:50.758Z,83.01
2022-11-06T07:29:50.747Z,81.13
2022-11-06T07:30:50.752Z,80.47
2022-11-06T07:31:50.782Z,79.41
2022-11-06T07:32:50.758Z,80.68
2022-11-06T07:33:57.490Z,81.36
2022-11-06T07:36:12.751Z,81.15
2022-11-06T07:36:50.715Z,79.36
2022-11-06T07:37:50.719Z,81.76
2022-11-06T07:38:50.733Z,81.79
2022-11-06T07:39:50.733Z,83.48
2022-11-06T07:40:50.647Z,84.54
2022-11-06T07:41:50.641Z,84.30
2022-11-06T07:42:57.559Z,84.47
2022-11-06T07:43:50.735Z,82.78
2022-11-06T07:44:57.730Z,83.42
2022-11-06T07:45:50.589Z,80.65
2022-11-06T07:46:50.675Z,81.71
2022-11-06T07:47:53.974Z,83.64
2022-11-06T07:48:51.707Z,84.05
2022-11-06T07:49:51.267Z,84.09
2022-11-06T07:50:50.570Z,85.22
2022-11-06T07:51:58.545Z,85.33
2022-11-06T07:52:50.512Z,85.14
2022-11-06T07:53:50.524Z,83.64
2022-11-06T07:54:50.487Z,84.47
2022-11-06T07:55:50.494Z,84.81
2022-11-06T07:56:50.558Z,84.64
2022-11-06T07:57:51.218Z,86.23
2022-11-06T07:58:50.572Z,87.13
2022-11-06T07:59:50.428Z,88.68
2022-11-06T08:00:50.623Z,89.42
2022-11-06T08:02:04.290Z,86.97
2022-11-06T08:02:50.409Z,85.86
2022-11-06T08:03:50.430Z,84.86
2022-11-06T08:04:50.406Z,84.80
2022-11-06T08:05:50.365Z,83.67
2022-11-06T08:06:50.421Z,84.30
2022-11-06T08:07:50.397Z,84.84
2022-11-06T08:08:54.827Z,84.74
2022-11-06T08:09:51.345Z,85.72
2022-11-06T08:10:50.309Z,85.86
2022-11-06T08:11:50.316Z,85.84
2022-11-06T08:12:50.285Z,87.69
2022-11-06T08:13:50.388Z,89.36
2022-11-06T08:14:50.314Z,90.64
2022-11-06T08:15:50.276Z,91.71
2022-11-06T08:16:50.263Z,90.31
2022-11-06T08:17:51.755Z,91.44
2022-11-06T08:18:52.386Z,93.71
2022-11-06T08:19:50.367Z,91.75
2022-11-06T08:20:50.218Z,93.71
2022-11-06T08:21:50.235Z,93.71
2022-11-06T08:22:50.205Z,92.99
2022-11-06T08:23:50.250Z,92.84
2022-11-06T08:24:50.783Z,93.25
2022-11-06T08:25:50.199Z,92.08
2022-11-06T08:26:53.203Z,91.97
2022-11-06T08:27:51.068Z,91.46
2022-11-06T08:30:20.266Z,91.77
2022-11-06T08:31:16.315Z,90.59
2022-11-06T08:32:14.272Z,90.55
2022-11-06T08:33:14.237Z,90.66
2022-11-06T08:34:14.209Z,90.75
2022-11-06T08:35:14.150Z,89.42
2022-11-06T08:36:14.134Z,88.45
2022-11-06T08:37:14.390Z,88.92
2022-11-06T08:38:16.478Z,87.65
2022-11-06T08:39:14.676Z,86.17
2022-11-06T08:40:14.815Z,86.54
2022-11-06T08:41:16.151Z,85.35
2022-11-06T08:42:14.277Z,85.66
2022-11-06T08:43:14.443Z,85.11
2022-11-06T08:44:14.047Z,85.58
2022-11-06T08:45:14.021Z,84.61
2022-11-06T08:46:14.162Z,84.23
2022-11-06T08:47:14.077Z,82.79
2022-11-06T08:48:17.285Z,82.63
2022-11-06T08:49:14.659Z,84.66
2022-11-06T08:50:23.585Z,84.52
2022-11-06T08:51:13.957Z,84.80
2022-11-06T08:52:14.004Z,86.15
2022-11-06T08:53:14.322Z,85.19
2022-11-06T08:54:14.024Z,84.41
2022-11-06T08:55:13.914Z,84.82
2022-11-06T08:56:13.948Z,85.11
2022-11-06T08:57:20.747Z,86.07
2022-11-06T08:58:25.525Z,86.93
2022-11-06T08:59:13.957Z,86.93
2022-11-06T09:00:13.951Z,88.35
2022-11-06T09:01:13.954Z,88.72
2022-11-06T09:02:13.901Z,87.79
2022-11-06T09:03:14.178Z,89.29
2022-11-06T09:04:13.875Z,87.45
2022-11-06T09:05:13.810Z,87.57
2022-11-06T09:06:20.721Z,86.98
2022-11-06T09:07:16.568Z,85.33
2022-11-06T09:08:36.270Z,84.27
2022-11-06T09:09:13.826Z,84.52
2022-11-06T09:10:13.753Z,83.28
2022-11-06T09:11:13.800Z,84.41
2022-11-06T09:12:13.754Z,82.97
2022-11-06T09:13:14.080Z,84.52
2022-11-06T09:14:13.819Z,84.27
2022-11-06T09:15:18.734Z,82.67
2022-11-06T09:16:16.280Z,84.27
2022-11-06T09:17:14.800Z,83.00
2022-11-06T09:18:13.658Z,81.54
2022-11-06T09:19:13.747Z,84.20
2022-11-06T09:20:13.677Z,83.61
2022-11-06T09:21:13.690Z,82.83
2022-11-06T09:22:13.716Z,84.23
2022-11-06T09:23:13.908Z,84.27
2022-11-06T09:24:32.292Z,84.47
2022-11-06T09:25:15.342Z,83.59
2022-11-06T09:26:13.730Z,83.49
2022-11-06T09:27:13.645Z,84.45
2022-11-06T09:28:13.593Z,85.89
2022-11-06T09:30:18.290Z,84.96
2022-11-06T09:31:18.311Z,86.05
2022-11-06T09:32:18.394Z,84.88
2022-11-06T09:33:21.448Z,82.69
2022-11-06T09:34:27.613Z,82.71
2022-11-06T09:35:19.203Z,80.16
2022-11-06T09:36:18.546Z,80.26
2022-11-06T09:37:18.191Z,79.07
2022-11-06T09:38:18.208Z,80.03
2022-11-06T09:40:22.449Z,79.58
2022-11-06T09:41:22.212Z,80.74
2022-11-06T09:42:22.205Z,79.00
2022-11-06T09:43:58.360Z,79.74
2022-11-06T09:45:29.319Z,77.45
2022-11-06T09:46:22.411Z,76.26
2022-11-06T09:47:22.150Z,76.40
2022-11-06T09:48:22.114Z,76.94
2022-11-06T09:49:22.174Z,77.25
2022-11-06T09:50:22.114Z,78.38
2022-11-06T09:51:22.085Z,76.26
2022-11-06T09:52:29.717Z,76.63
2022-11-06T09:53:22.096Z,77.04
2022-11-06T09:54:45.729Z,77.04
2022-11-06T09:55:22.062Z,78.09
2022-11-06T09:56:22.028Z,74.69
2022-11-06T09:57:25.021Z,76.09
2022-11-06T09:58:22.474Z,77.52
2022-11-06T09:59:22.084Z,77.11
2022-11-06T10:00:22.175Z,77.45
2022-11-06T10:01:37.072Z,77.97
2022-11-06T10:02:22.174Z,78.23
2022-11-06T10:03:21.961Z,77.86
2022-11-06T10:04:21.942Z,78.27
2022-11-06T10:05:21.936Z,78.58
2022-11-06T10:06:22.009Z,77.38
2022-11-06T10:07:29.377Z,76.70
2022-11-06T10:08:21.934Z,77.68
2022-11-06T10:09:22.825Z,77.74
2022-11-06T10:11:30.628Z,76.92
2022-11-06T10:12:21.881Z,74.69
2022-11-06T10:13:21.856Z,75.20
2022-11-06T10:14:21.875Z,74.99
2022-11-06T10:15:21.941Z,74.85
2022-11-06T10:16:22.423Z,73.70
2022-11-06T10:17:21.861Z,73.53
2022-11-06T10:18:24.744Z,72.28
2022-11-06T10:19:23.002Z,72.89
2022-11-06T10:20:26.847Z,72.72
2022-11-06T10:21:22.893Z,73.09
2022-11-06T10:22:21.779Z,74.52
2022-11-06T10:23:21.733Z,74.72
2022-11-06T10:24:21.778Z,76.39
2022-11-06T10:25:21.754Z,77.64
2022-11-06T10:26:21.731Z,77.41
2022-11-06T10:27:24.772Z,78.50
2022-11-06T10:28:36.253Z,78.91
2022-11-06T10:29:21.747Z,78.05
2022-11-06T10:30:21.903Z,79.21
2022-11-06T10:31:21.736Z,80.47
2022-11-06T10:32:21.647Z,81.16
2022-11-06T10:33:21.701Z,81.71
2022-11-06T10:34:21.803Z,81.91
2022-11-06T10:35:21.653Z,82.32
2022-11-06T10:36:26.810Z,84.16
2022-11-06T10:38:31.915Z,81.85
2022-11-06T10:39:21.560Z,81.13
2022-11-06T10:40:21.635Z,82.77
2022-11-06T10:41:21.559Z,82.05
2022-11-06T10:42:21.750Z,83.85
2022-11-06T10:43:21.722Z,82.18
2022-11-06T10:44:21.506Z,80.91
2022-11-06T10:45:28.249Z,84.12
2022-11-06T10:47:32.474Z,78.75
2022-11-06T10:48:23.792Z,75.12
2022-11-06T10:49:22.625Z,76.10
2022-11-06T10:50:21.451Z,75.83
2022-11-06T10:53:39.151Z,74.51
2022-11-06T10:55:48.971Z,74.27
2022-11-06T10:56:48.963Z,74.41
2022-11-06T10:57:49.816Z,75.29
2022-11-06T10:58:49.664Z,72.61
2022-11-06T10:59:49.118Z,74.65
2022-11-06T11:00:48.840Z,74.41
2022-11-06T11:01:49.317Z,71.20
2022-11-06T11:02:48.692Z,71.57
2022-11-06T11:03:48.657Z,73.09
2022-11-06T11:04:48.930Z,72.92
2022-11-06T11:05:48.645Z,74.65
2022-11-06T11:06:51.398Z,75.80
2022-11-06T11:11:03.958Z,72.78
2022-11-06T11:11:47.309Z,71.06
2022-11-06T11:12:46.312Z,74.89
2022-11-06T11:13:47.623Z,76.11
2022-11-06T11:14:46.639Z,77.20
2022-11-06T11:15:51.598Z,77.24
2022-11-06T11:16:49.132Z,79.72
2022-11-06T11:17:47.321Z,77.92
2022-11-06T11:18:46.241Z,81.02
2022-11-06T11:19:46.197Z,81.40
2022-11-06T11:20:46.212Z,82.12
2022-11-06T11:21:46.244Z,82.50
2022-11-06T11:22:46.912Z,83.73
2022-11-06T11:23:47.151Z,83.07
2022-11-06T11:24:50.942Z,82.77
2022-11-06T11:25:46.219Z,82.91
2022-11-06T11:26:46.187Z,84.20
2022-11-06T11:27:46.145Z,82.73
2022-11-06T11:28:46.094Z,82.22
2022-11-06T11:29:46.135Z,82.53
2022-11-06T11:30:46.089Z,82.45
2022-11-06T11:31:46.155Z,81.04
2022-11-06T11:32:46.132Z,80.09
2022-11-06T11:33:52.685Z,79.41
2022-11-06T11:35:00.591Z,76.72
2022-11-06T11:35:46.099Z,76.18
2022-11-06T11:36:46.118Z,75.02
2022-11-06T11:37:46.085Z,73.77
2022-11-06T11:38:45.986Z,76.75
2022-11-06T11:39:46.524Z,71.57
2022-11-06T11:40:47.573Z,75.36
2022-11-06T11:41:45.963Z,72.52
2022-11-06T11:42:53.592Z,73.02
2022-11-06T11:43:46.007Z,73.83
2022-11-06T11:44:45.927Z,72.25
2022-11-06T11:45:45.913Z,72.78
2022-11-06T11:46:45.925Z,75.12
2022-11-06T11:47:45.882Z,74.82
2022-11-06T11:48:46.644Z,74.01
2022-11-06T11:49:45.861Z,75.50
2022-11-06T11:50:45.853Z,74.38
2022-11-06T11:51:53.053Z,75.78
2022-11-06T11:52:46.967Z,76.08
2022-11-06T11:53:45.995Z,77.75
2022-11-06T11:54:45.848Z,78.09
2022-11-06T11:55:45.805Z,77.85
2022-11-06T11:57:12.777Z,79.54
2022-11-06T11:57:46.797Z,78.77
2022-11-06T11:58:45.821Z,80.77
2022-11-06T11:59:46.113Z,78.93
2022-11-06T12:00:45.800Z,79.24
2022-11-06T12:01:46.021Z,79.82
2022-11-06T12:02:45.777Z,79.93
2022-11-06T12:03:45.728Z,81.18
2022-11-06T12:04:45.737Z,80.74
2022-11-06T12:05:46.532Z,79.04
2022-11-06T12:06:45.759Z,80.98
2022-11-06T12:07:46.600Z,80.98
2022-11-06T12:08:46.780Z,80.57
2022-11-06T12:09:45.756Z,79.90
2022-11-06T12:10:45.656Z,82.04
2022-11-06T12:11:46.053Z,82.28
2022-11-06T12:12:45.683Z,82.55
2022-11-06T12:13:45.649Z,82.65
2022-11-06T12:14:45.613Z,80.14
2022-11-06T12:15:46.616Z,80.91
2022-11-06T12:17:49.479Z,81.12
2022-11-06T12:18:35.758Z,82.18
2022-11-06T12:19:48.006Z,82.86
2022-11-06T12:20:44.079Z,82.75
2022-11-06T12:21:35.725Z,80.20
2022-11-06T12:22:35.781Z,82.45
2022-11-06T12:23:35.712Z,80.96
2022-11-06T12:24:35.775Z,82.14
2022-11-06T12:25:35.824Z,82.28
2022-11-06T12:26:50.433Z,82.93
2022-11-06T12:27:35.723Z,82.79
2022-11-06T12:28:35.666Z,85.04
2022-11-06T12:29:35.684Z,84.42
2022-11-06T12:30:35.628Z,83.92
2022-11-06T12:31:35.633Z,83.81
2022-11-06T12:32:35.705Z,83.10
2022-11-06T12:34:04.511Z,83.92
2022-11-06T12:34:37.457Z,83.87
2022-11-06T12:35:50.455Z,85.30
2022-11-06T12:36:35.577Z,83.67
2022-11-06T12:37:35.607Z,83.98
2022-11-06T12:38:35.553Z,82.35
2022-11-06T12:39:35.533Z,84.18
2022-11-06T12:40:35.543Z,83.63
2022-11-06T12:41:35.554Z,83.02
2022-11-06T12:42:35.544Z,82.55
2022-11-06T12:43:35.718Z,82.55
2022-11-06T12:44:35.482Z,82.24
2022-11-06T12:45:35.634Z,83.71
2022-11-06T12:46:35.458Z,82.73
2022-11-06T12:47:35.497Z,83.14
2022-11-06T12:48:35.494Z,83.04
2022-11-06T12:49:35.446Z,83.54
2022-11-06T12:50:35.407Z,83.75
2022-11-06T12:51:35.947Z,84.26
2022-11-06T12:52:36.952Z,83.85
2022-11-06T12:53:35.428Z,83.04
2022-11-06T12:54:35.370Z,82.56
2022-11-06T12:55:35.400Z,83.04
2022-11-06T12:56:35.384Z,83.79
2022-11-06T12:57:35.437Z,84.30
2022-11-06T12:58:35.322Z,85.32
2022-11-06T12:59:35.348Z,83.89
2022-11-06T13:00:35.745Z,83.79
2022-11-06T13:01:43.318Z,84.71
2022-11-06T13:02:35.424Z,84.50
2022-11-06T13:03:35.287Z,83.32
2022-11-06T13:04:35.260Z,83.22
2022-11-06T13:05:35.248Z,85.26
2022-11-06T13:06:35.313Z,82.43
2022-11-06T13:07:35.339Z,83.05
2022-11-06T13:08:35.237Z,84.22
2022-11-06T13:09:35.216Z,83.91